KSUN

Details ICAO KSUN (SUN)
Name FRIEDMAN MEM
Region United States
Timezone America/Boise (UTC-7.0)
Plans Departing 32
Arriving 30
Stats Elevation 5,320 ft / 1,622 m (AMSL)
Location 43.504452° -114.296209°
Runways 1
Magnetic Variation 12.734° E
Sunrise 2017-12-17 15:06:14 UTC / 2017-12-17 08:06:14 Local
Sunset 2017-12-18 00:03:25 UTC / 2017-12-17 17:03:25 Local
Advertisement - Login to hide

Runways

ID Width Length Bearing (true) Bearing (mag) Surface Threshold Offset Overrun Length
13 100 ft / 30 m 6,949 ft / 2,118 m 144.87° 132.14° Asphalt 1,501 ft / 458 m 0 ft / 0 m
31 100 ft / 30 m 6,949 ft / 2,118 m 324.88° 312.15° Asphalt 0 ft / 0 m 0 ft / 0 m

Map

Weather


0- 5 10 15 20 25 30 35+ Temperature / ° C

Clouds and Precipitation
Forecast for 2017-12-17 12:00 UTC. Updated an hour ago

Ground ~20,000 ft ~40,000 ft Winds

METAR

KSUN 171155Z AUTO 32005KT 10SM CLR M10/M11 A3013 RMK AO2

TAF

TAF KSUN 171120Z 1712/1818 31006KT P6SM SCT080 FM171800 14006KT 4SM BR SCT004 BKN015 FM180200 31006KT P6SM BKN040 FM180700 31006KT P6SM VCSH BKN025 AMD LTD TO CLD VIS AND WIND TIL 171400

Frequencies

Recorded 128.22 MHz ATIS
Unicom 125.60 MHz CTAF
Ground 121.70 MHz GND
Recorded 128.22 MHz AWOS
Unicom 122.95 MHz UNICOM
Tower 125.60 MHz HAILEY TWR
Warning: Do not use this data for real-world aviation or navigation. No guarantee of current accuracy is given.